createdAt,value
2022-10-19T00:03:55.246Z,98456.94
2022-10-19T00:09:00.449Z,98456.13
2022-10-19T00:14:05.313Z,98451.06
2022-10-19T00:19:15.882Z,98450.25
2022-10-19T00:24:19.679Z,98432.06
2022-10-19T00:29:23.072Z,98439.56
2022-10-19T00:34:28.000Z,98430.69
2022-10-19T00:39:31.311Z,98441.16
2022-10-19T00:45:06.130Z,98423.06
2022-10-19T00:50:14.520Z,98432.59
2022-10-19T00:55:18.322Z,98420.63
2022-10-19T01:00:21.754Z,98408.56
2022-10-19T01:05:27.740Z,98408.56
2022-10-19T01:10:43.010Z,98398.28
2022-10-19T01:15:54.584Z,98396.53
2022-10-19T01:21:22.308Z,98400.00
2022-10-19T01:26:42.994Z,98406.13
2022-10-19T01:31:51.438Z,98406.06
2022-10-19T01:37:02.234Z,98409.66
2022-10-19T01:42:13.077Z,98401.75
2022-10-19T01:47:21.731Z,98385.31
2022-10-19T01:52:28.405Z,98370.56
2022-10-19T01:57:35.395Z,98372.19
2022-10-19T02:02:44.919Z,98363.50
2022-10-19T02:07:52.578Z,98365.19
2022-10-19T02:12:57.687Z,98346.25
2022-10-19T02:18:26.569Z,98351.38
2022-10-19T02:23:30.332Z,98342.84
2022-10-19T02:28:34.543Z,98340.19
2022-10-19T02:33:39.619Z,98341.06
2022-10-19T02:38:43.363Z,98329.78
2022-10-19T02:43:51.409Z,98329.78
2022-10-19T02:48:58.495Z,98322.13
2022-10-19T02:54:04.948Z,98307.69
2022-10-19T02:59:08.832Z,98295.81
2022-10-19T03:04:13.559Z,98285.81
2022-10-19T03:09:16.990Z,98289.28
2022-10-19T03:14:20.310Z,98292.59
2022-10-19T03:19:25.377Z,98290.69
2022-10-19T03:24:28.892Z,98286.22
2022-10-19T03:29:32.356Z,98277.59
2022-10-19T03:34:37.148Z,98249.50
2022-10-19T03:39:40.479Z,98259.94
2022-10-19T03:44:43.823Z,98263.25
2022-10-19T03:49:50.355Z,98269.00
2022-10-19T03:54:53.707Z,98266.31
2022-10-19T03:59:57.094Z,98263.69
2022-10-19T04:05:01.841Z,98254.19
2022-10-19T04:10:07.015Z,98237.84
2022-10-19T04:15:11.288Z,98237.13
2022-10-19T04:20:16.390Z,98215.53
2022-10-19T04:25:19.964Z,98227.81
2022-10-19T04:30:23.370Z,98220.69
2022-10-19T04:35:28.423Z,98223.16
2022-10-19T04:40:31.710Z,98215.44
2022-10-19T04:45:37.071Z,98218.09
2022-10-19T04:50:41.801Z,98212.75
2022-10-19T04:55:45.219Z,98219.91
2022-10-19T05:00:49.000Z,98211.25
2022-10-19T05:05:53.766Z,98215.50
2022-10-19T05:11:01.406Z,98208.78
2022-10-19T05:16:06.782Z,98217.31
2022-10-19T05:21:14.093Z,98213.13
2022-10-19T05:26:19.051Z,98216.38
2022-10-19T05:31:22.472Z,98193.00
2022-10-19T05:36:29.429Z,98206.03
2022-10-19T05:41:33.029Z,98206.16
2022-10-19T05:46:36.376Z,98194.03
2022-10-19T05:51:41.662Z,98197.34
2022-10-19T05:56:45.682Z,98201.59
2022-10-19T06:01:49.473Z,98190.44
2022-10-19T06:06:54.475Z,98195.56
2022-10-19T06:11:57.793Z,98184.28
2022-10-19T06:17:01.084Z,98180.19
2022-10-19T06:22:05.942Z,98180.59
2022-10-19T06:27:09.126Z,98177.63
2022-10-19T06:32:12.769Z,98178.31
2022-10-19T06:37:17.553Z,98175.84
2022-10-19T06:42:20.866Z,98173.13
2022-10-19T06:47:28.353Z,98171.75
2022-10-19T06:52:34.002Z,98171.34
2022-10-19T06:57:37.738Z,98172.53
2022-10-19T07:02:41.197Z,98170.00
2022-10-19T07:07:47.007Z,98180.44
2022-10-19T07:12:50.419Z,98172.38
2022-10-19T07:17:54.462Z,98177.09
2022-10-19T07:22:59.270Z,98175.47
2022-10-19T07:28:02.318Z,98175.25
2022-10-19T07:33:06.901Z,98168.66
2022-10-19T07:38:11.734Z,98166.13
2022-10-19T07:43:15.069Z,98153.25
2022-10-19T07:48:18.356Z,98160.25
2022-10-19T07:53:23.187Z,98151.31
2022-10-19T07:58:26.242Z,98159.34
2022-10-19T08:08:55.539Z,98161.84
2022-10-19T08:19:41.549Z,98160.06
2022-10-19T08:24:46.448Z,98156.09
2022-10-19T08:29:49.895Z,98156.41
2022-10-19T08:34:53.326Z,98147.50
2022-10-19T08:39:59.795Z,98150.22
2022-10-19T08:45:24.658Z,98153.81
2022-10-19T08:50:34.611Z,98162.97
2022-10-19T08:55:51.013Z,98164.06
2022-10-19T09:01:01.611Z,98157.50
2022-10-19T09:06:20.572Z,98167.69
2022-10-19T09:11:28.735Z,98172.91
2022-10-19T09:16:32.939Z,98176.63
2022-10-19T09:21:47.362Z,98171.72
2022-10-19T09:26:54.807Z,98170.13
2022-10-19T09:32:01.587Z,98162.31
2022-10-19T09:37:05.977Z,98156.28
2022-10-19T09:42:19.169Z,98166.31
2022-10-19T09:47:33.900Z,98169.81
2022-10-19T09:52:38.266Z,98167.88
2022-10-19T09:57:45.358Z,98167.13
2022-10-19T10:02:53.167Z,98168.06
2022-10-19T10:07:56.988Z,98160.56
2022-10-19T10:13:03.065Z,98161.13
2022-10-19T10:18:06.562Z,98149.59
2022-10-19T10:23:24.889Z,98146.78
2022-10-19T10:28:31.283Z,98137.81
2022-10-19T10:33:46.151Z,98144.16
2022-10-19T10:38:53.043Z,98132.59
2022-10-19T10:44:04.702Z,98126.31
2022-10-19T10:49:18.204Z,98125.53
2022-10-19T10:54:24.032Z,98130.75
2022-10-19T10:59:33.455Z,98130.63
2022-10-19T11:04:42.394Z,98115.13
2022-10-19T11:09:53.125Z,98125.38
2022-10-19T11:15:05.308Z,98129.63
2022-10-19T11:20:16.180Z,98139.94
2022-10-19T11:25:27.650Z,98132.66
2022-10-19T11:30:41.588Z,98137.19
2022-10-19T11:35:53.260Z,98132.63
2022-10-19T11:41:22.332Z,98132.94
2022-10-19T11:46:33.383Z,98129.81
2022-10-19T11:51:42.284Z,98129.31
2022-10-19T11:57:02.849Z,98116.44
2022-10-19T12:02:31.201Z,98126.16
2022-10-19T12:07:57.638Z,98128.38
2022-10-19T12:13:05.290Z,98134.78
2022-10-19T12:18:17.311Z,98138.47
2022-10-19T12:23:29.700Z,98130.97
2022-10-19T12:28:35.292Z,98139.41
2022-10-19T12:33:47.506Z,98144.38
2022-10-19T12:39:02.049Z,98147.09
2022-10-19T12:44:22.142Z,98147.25
2022-10-19T12:49:45.652Z,98145.28
2022-10-19T12:54:49.128Z,98150.53
2022-10-19T13:00:19.527Z,98147.91
2022-10-19T13:05:27.284Z,98152.47
2022-10-19T13:10:33.260Z,98165.16
2022-10-19T13:15:58.469Z,98163.31
2022-10-19T13:21:03.765Z,98168.81
2022-10-19T13:26:31.588Z,98168.66
2022-10-19T13:31:37.825Z,98174.03
2022-10-19T13:37:01.006Z,98172.59
2022-10-19T13:42:04.410Z,98179.44
2022-10-19T13:47:32.801Z,98181.88
2022-10-19T13:53:01.488Z,98185.56
2022-10-19T13:58:22.789Z,98188.44
2022-10-19T14:03:38.070Z,98178.13
2022-10-19T14:09:31.824Z,98180.94
2022-10-19T14:14:43.217Z,98190.69
2022-10-19T14:19:49.203Z,98202.09
2022-10-19T14:24:53.023Z,98208.56
2022-10-19T14:29:58.628Z,98195.59
2022-10-19T14:35:17.476Z,98210.53
2022-10-19T14:40:28.133Z,98213.22
2022-10-19T14:45:33.870Z,98211.78
2022-10-19T14:50:44.428Z,98220.53
2022-10-19T14:55:49.084Z,98223.28
2022-10-19T15:00:55.618Z,98236.41
2022-10-19T15:06:02.681Z,98233.22
2022-10-19T15:11:08.039Z,98232.38
2022-10-19T15:16:35.314Z,98237.56
2022-10-19T15:21:38.680Z,98241.88
2022-10-19T15:26:42.062Z,98248.78
2022-10-19T15:31:46.812Z,98251.22
2022-10-19T15:36:55.869Z,98259.03
2022-10-19T15:42:24.225Z,98264.25
2022-10-19T15:47:29.150Z,98261.72
2022-10-19T15:52:34.625Z,98266.09
2022-10-19T15:57:39.988Z,98274.69
2022-10-19T16:02:45.121Z,98272.91
2022-10-19T16:07:48.507Z,98275.59
2022-10-19T16:12:52.325Z,98275.72
2022-10-19T16:17:59.408Z,98280.09
2022-10-19T16:23:02.796Z,98287.78
2022-10-19T16:28:06.477Z,98281.03
2022-10-19T16:33:11.200Z,98286.25
2022-10-19T16:38:15.465Z,98282.13
2022-10-19T16:43:19.068Z,98293.97
2022-10-19T16:48:24.355Z,98290.59
2022-10-19T16:53:29.370Z,98288.84
2022-10-19T16:58:32.968Z,98304.41
2022-10-19T17:03:38.163Z,98308.66
2022-10-19T17:09:23.370Z,98311.97
2022-10-19T17:14:08.989Z,98322.41
2022-10-19T17:19:14.329Z,98325.84
2022-10-19T17:24:22.126Z,98331.13
2022-10-19T17:29:26.636Z,98337.06
2022-10-19T17:34:34.095Z,98338.75
2022-10-19T17:39:37.367Z,98347.41
2022-10-19T17:44:40.869Z,98348.41
2022-10-19T17:49:46.609Z,98343.31
2022-10-19T17:55:11.251Z,98352.03
2022-10-19T18:00:14.579Z,98346.91
2022-10-19T18:05:19.577Z,98358.94
2022-10-19T18:10:22.633Z,98359.00
2022-10-19T18:15:26.128Z,98354.59
2022-10-19T18:20:30.908Z,98362.25
2022-10-19T18:25:53.323Z,98367.47
2022-10-19T18:30:57.422Z,98372.69
2022-10-19T18:36:02.236Z,98377.06
2022-10-19T18:41:07.078Z,98365.84
2022-10-19T18:46:11.904Z,98372.63
2022-10-19T18:51:17.532Z,98381.31
2022-10-19T18:56:23.142Z,98380.50
2022-10-19T19:01:28.236Z,98385.75
2022-10-19T19:06:35.485Z,98381.47
2022-10-19T19:11:42.073Z,98379.75
2022-10-19T19:16:46.683Z,98390.88
2022-10-19T19:21:51.722Z,98396.03
2022-10-19T19:26:55.692Z,98397.78
2022-10-19T19:31:59.069Z,98399.47
2022-10-19T19:37:07.331Z,98401.16
2022-10-19T19:42:13.735Z,98414.88
2022-10-19T19:47:19.432Z,98422.75
2022-10-19T19:52:24.242Z,98419.16
2022-10-19T19:57:27.339Z,98424.47
2022-10-19T20:02:33.103Z,98440.03
2022-10-19T20:07:38.197Z,98440.94
2022-10-19T20:12:41.697Z,98444.41
2022-10-19T20:17:45.436Z,98450.38
2022-10-19T20:22:50.772Z,98452.94
2022-10-19T20:27:54.214Z,98448.63
2022-10-19T20:32:58.826Z,98459.94
2022-10-19T20:38:04.348Z,98462.47
2022-10-19T20:43:07.696Z,98462.50
2022-10-19T20:48:11.171Z,98466.00
2022-10-19T20:53:15.931Z,98458.19
2022-10-19T20:58:19.049Z,98466.72
2022-10-19T21:03:23.944Z,98471.16
2022-10-19T21:08:28.798Z,98471.06
2022-10-19T21:13:32.361Z,98468.44
2022-10-19T21:18:35.733Z,98467.59
2022-10-19T21:23:40.486Z,98467.59
2022-10-19T21:28:48.016Z,98472.75
2022-10-19T21:33:52.110Z,98482.25
2022-10-19T21:38:57.689Z,98489.19
2022-10-19T21:44:01.412Z,98484.03
2022-10-19T21:49:05.630Z,98491.78
2022-10-19T21:54:13.995Z,98497.03
2022-10-19T21:59:17.979Z,98494.50
2022-10-19T22:04:23.245Z,98502.28
2022-10-19T22:09:28.749Z,98500.56
2022-10-19T22:14:32.092Z,98517.16
2022-10-19T22:19:35.397Z,98517.16
2022-10-19T22:24:40.407Z,98517.13
2022-10-19T22:29:43.925Z,98529.19
2022-10-19T22:34:47.509Z,98531.81
2022-10-19T22:39:53.009Z,98530.09
2022-10-19T22:44:56.362Z,98537.00
2022-10-19T22:50:00.556Z,98544.75
2022-10-19T22:55:05.762Z,98544.72
2022-10-19T23:00:10.458Z,98548.22
2022-10-19T23:05:13.749Z,98556.88
2022-10-19T23:10:18.925Z,98558.59
2022-10-19T23:15:22.990Z,98560.34
2022-10-19T23:20:26.402Z,98573.28
2022-10-19T23:30:35.461Z,98583.63
2022-10-19T23:35:38.894Z,98597.41
2022-10-19T23:40:44.141Z,98594.81
2022-10-19T23:45:47.459Z,98603.44
2022-10-19T23:50:58.328Z,98608.59
2022-10-19T23:56:03.800Z,98597.44
